Terminal Aerodrome Forecast
Issued by NWS Blacksburg, VA

Home | Current Version | Previous Version | Text Only | Print | Product List | Glossary On
Versions: 1 2 3 4 5 6 7 8 9 10 11 12 13 14 15
000
FTUS41 KRNK 230525
TAFBLF
TAF
KBLF 230525Z 2306/2406 17004KT P6SM BKN045 OVC250
      TEMPO 2310/2314 VRB03KT 3/4SM BR OVC004
     FM231400 VRB06KT P6SM OVC015
     FM231600 23008KT P6SM SCT035 BKN250=

USA.gov is the U.S. government's official web portal to all federal, state and local government web resources and services.